sensor_id;sensor_type;location;lat;lon;timestamp;P1;durP1;ratioP1;P2;durP2;ratioP2
59786;SDS011;45672;51.612;5.536;2023-03-01T00:02:15;11.77;;;8.68;;
59786;SDS011;45672;51.612;5.536;2023-03-01T00:04:40;14.27;;;9.70;;
59786;SDS011;45672;51.612;5.536;2023-03-01T00:07:06;13.35;;;9.60;;
59786;SDS011;45672;51.612;5.536;2023-03-01T00:09:31;15.85;;;9.43;;
59786;SDS011;45672;51.612;5.536;2023-03-01T00:11:56;12.40;;;9.35;;
59786;SDS011;45672;51.612;5.536;2023-03-01T00:14:22;10.63;;;8.85;;
59786;SDS011;45672;51.612;5.536;2023-03-01T00:16:47;13.18;;;9.38;;
59786;SDS011;45672;51.612;5.536;2023-03-01T00:19:13;14.55;;;10.00;;
59786;SDS011;45672;51.612;5.536;2023-03-01T00:21:41;13.63;;;9.05;;
59786;SDS011;45672;51.612;5.536;2023-03-01T00:24:06;11.50;;;7.53;;
59786;SDS011;45672;51.612;5.536;2023-03-01T00:26:32;13.73;;;9.85;;
59786;SDS011;45672;51.612;5.536;2023-03-01T00:28:58;14.77;;;9.35;;
59786;SDS011;45672;51.612;5.536;2023-03-01T00:31:24;13.15;;;9.35;;
59786;SDS011;45672;51.612;5.536;2023-03-01T00:33:53;14.43;;;9.82;;
59786;SDS011;45672;51.612;5.536;2023-03-01T00:36:22;13.85;;;9.40;;
59786;SDS011;45672;51.612;5.536;2023-03-01T00:38:49;14.68;;;10.05;;
59786;SDS011;45672;51.612;5.536;2023-03-01T00:41:15;11.38;;;8.88;;
59786;SDS011;45672;51.612;5.536;2023-03-01T00:43:42;12.73;;;9.68;;
59786;SDS011;45672;51.612;5.536;2023-03-01T00:46:10;14.10;;;9.50;;
59786;SDS011;45672;51.612;5.536;2023-03-01T00:48:37;13.38;;;8.65;;
59786;SDS011;45672;51.612;5.536;2023-03-01T00:51:10;11.75;;;9.25;;
59786;SDS011;45672;51.612;5.536;2023-03-01T00:53:40;12.30;;;9.13;;
59786;SDS011;45672;51.612;5.536;2023-03-01T00:56:06;15.13;;;9.20;;
59786;SDS011;45672;51.612;5.536;2023-03-01T00:58:34;13.05;;;8.88;;
59786;SDS011;45672;51.612;5.536;2023-03-01T01:01:00;11.25;;;8.88;;
59786;SDS011;45672;51.612;5.536;2023-03-01T01:03:31;13.25;;;9.10;;
59786;SDS011;45672;51.612;5.536;2023-03-01T01:05:56;10.35;;;8.77;;
59786;SDS011;45672;51.612;5.536;2023-03-01T01:08:22;12.13;;;8.85;;
59786;SDS011;45672;51.612;5.536;2023-03-01T01:10:47;14.30;;;9.48;;
59786;SDS011;45672;51.612;5.536;2023-03-01T01:13:12;19.13;;;9.57;;
59786;SDS011;45672;51.612;5.536;2023-03-01T01:15:39;12.02;;;8.88;;
59786;SDS011;45672;51.612;5.536;2023-03-01T01:18:04;12.52;;;9.25;;
59786;SDS011;45672;51.612;5.536;2023-03-01T01:20:30;12.65;;;8.90;;
59786;SDS011;45672;51.612;5.536;2023-03-01T01:22:55;10.15;;;8.48;;
59786;SDS011;45672;51.612;5.536;2023-03-01T01:25:21;12.43;;;8.52;;
59786;SDS011;45672;51.612;5.536;2023-03-01T01:27:46;11.35;;;8.60;;
59786;SDS011;45672;51.612;5.536;2023-03-01T01:30:12;12.50;;;8.85;;
59786;SDS011;45672;51.612;5.536;2023-03-01T01:32:38;12.73;;;8.98;;
59786;SDS011;45672;51.612;5.536;2023-03-01T01:35:03;11.70;;;8.93;;
59786;SDS011;45672;51.612;5.536;2023-03-01T01:37:29;10.85;;;8.73;;
59786;SDS011;45672;51.612;5.536;2023-03-01T01:39:58;12.27;;;8.95;;
59786;SDS011;45672;51.612;5.536;2023-03-01T01:42:24;13.43;;;9.10;;
59786;SDS011;45672;51.612;5.536;2023-03-01T01:45:15;12.25;;;9.02;;
59786;SDS011;45672;51.612;5.536;2023-03-01T01:48:03;11.40;;;8.27;;
59786;SDS011;45672;51.612;5.536;2023-03-01T01:50:31;15.20;;;9.40;;
59786;SDS011;45672;51.612;5.536;2023-03-01T01:53:04;11.77;;;9.10;;
59786;SDS011;45672;51.612;5.536;2023-03-01T01:55:34;11.25;;;8.90;;
59786;SDS011;45672;51.612;5.536;2023-03-01T01:58:02;12.05;;;8.45;;
59786;SDS011;45672;51.612;5.536;2023-03-01T02:00:31;12.13;;;8.77;;
59786;SDS011;45672;51.612;5.536;2023-03-01T02:02:57;10.90;;;8.13;;
59786;SDS011;45672;51.612;5.536;2023-03-01T02:05:34;13.18;;;9.38;;
59786;SDS011;45672;51.612;5.536;2023-03-01T02:08:05;12.13;;;8.63;;
59786;SDS011;45672;51.612;5.536;2023-03-01T02:10:33;11.25;;;9.05;;
59786;SDS011;45672;51.612;5.536;2023-03-01T02:12:59;13.57;;;8.65;;
59786;SDS011;45672;51.612;5.536;2023-03-01T02:15:25;10.82;;;8.38;;
59786;SDS011;45672;51.612;5.536;2023-03-01T02:17:51;11.30;;;8.50;;
59786;SDS011;45672;51.612;5.536;2023-03-01T02:22:52;12.35;;;8.27;;
59786;SDS011;45672;51.612;5.536;2023-03-01T02:30:24;13.73;;;8.23;;
59786;SDS011;45672;51.612;5.536;2023-03-01T02:32:53;10.05;;;8.25;;
59786;SDS011;45672;51.612;5.536;2023-03-01T02:35:21;10.43;;;8.00;;
59786;SDS011;45672;51.612;5.536;2023-03-01T02:37:48;14.13;;;8.32;;
59786;SDS011;45672;51.612;5.536;2023-03-01T02:40:14;14.68;;;8.38;;
59786;SDS011;45672;51.612;5.536;2023-03-01T02:42:55;10.90;;;7.78;;
59786;SDS011;45672;51.612;5.536;2023-03-01T02:45:22;10.50;;;7.78;;
59786;SDS011;45672;51.612;5.536;2023-03-01T02:47:48;9.80;;;8.23;;
59786;SDS011;45672;51.612;5.536;2023-03-01T02:55:37;12.93;;;8.32;;
59786;SDS011;45672;51.612;5.536;2023-03-01T02:58:03;9.75;;;7.85;;
59786;SDS011;45672;51.612;5.536;2023-03-01T03:00:36;11.70;;;7.68;;
59786;SDS011;45672;51.612;5.536;2023-03-01T03:03:05;9.07;;;7.15;;
59786;SDS011;45672;51.612;5.536;2023-03-01T03:05:31;7.20;;;6.35;;
59786;SDS011;45672;51.612;5.536;2023-03-01T03:07:58;9.68;;;7.28;;
59786;SDS011;45672;51.612;5.536;2023-03-01T03:10:29;12.00;;;7.45;;
59786;SDS011;45672;51.612;5.536;2023-03-01T03:13:02;9.13;;;6.90;;
59786;SDS011;45672;51.612;5.536;2023-03-01T03:15:29;14.02;;;6.95;;
59786;SDS011;45672;51.612;5.536;2023-03-01T03:17:55;10.68;;;7.70;;
59786;SDS011;45672;51.612;5.536;2023-03-01T03:20:24;7.30;;;6.13;;
59786;SDS011;45672;51.612;5.536;2023-03-01T03:22:52;9.35;;;7.35;;
59786;SDS011;45672;51.612;5.536;2023-03-01T03:25:20;10.43;;;6.78;;
59786;SDS011;45672;51.612;5.536;2023-03-01T03:27:47;11.15;;;7.35;;
59786;SDS011;45672;51.612;5.536;2023-03-01T03:30:17;8.73;;;6.88;;
59786;SDS011;45672;51.612;5.536;2023-03-01T03:32:45;9.32;;;7.10;;
59786;SDS011;45672;51.612;5.536;2023-03-01T03:37:42;7.65;;;6.30;;
59786;SDS011;45672;51.612;5.536;2023-03-01T03:40:26;8.38;;;6.63;;
59786;SDS011;45672;51.612;5.536;2023-03-01T03:42:52;7.25;;;6.40;;
59786;SDS011;45672;51.612;5.536;2023-03-01T03:45:18;7.70;;;6.07;;
59786;SDS011;45672;51.612;5.536;2023-03-01T03:47:43;8.98;;;6.85;;
59786;SDS011;45672;51.612;5.536;2023-03-01T03:50:10;11.52;;;7.50;;
59786;SDS011;45672;51.612;5.536;2023-03-01T03:52:36;7.90;;;6.78;;
59786;SDS011;45672;51.612;5.536;2023-03-01T03:55:02;11.60;;;7.80;;
59786;SDS011;45672;51.612;5.536;2023-03-01T03:57:27;8.27;;;6.90;;
59786;SDS011;45672;51.612;5.536;2023-03-01T03:59:53;8.43;;;6.63;;
59786;SDS011;45672;51.612;5.536;2023-03-01T04:02:18;9.35;;;7.40;;
59786;SDS011;45672;51.612;5.536;2023-03-01T04:04:47;9.50;;;7.20;;
59786;SDS011;45672;51.612;5.536;2023-03-01T04:07:14;10.35;;;7.07;;
59786;SDS011;45672;51.612;5.536;2023-03-01T04:09:40;10.60;;;7.85;;
59786;SDS011;45672;51.612;5.536;2023-03-01T04:12:07;9.07;;;6.88;;
59786;SDS011;45672;51.612;5.536;2023-03-01T04:14:33;8.43;;;7.53;;
59786;SDS011;45672;51.612;5.536;2023-03-01T04:16:58;8.27;;;7.05;;
59786;SDS011;45672;51.612;5.536;2023-03-01T04:19:23;9.88;;;7.63;;
59786;SDS011;45672;51.612;5.536;2023-03-01T04:21:49;7.93;;;6.57;;
59786;SDS011;45672;51.612;5.536;2023-03-01T04:24:14;10.43;;;7.43;;
59786;SDS011;45672;51.612;5.536;2023-03-01T04:26:39;8.32;;;7.28;;
59786;SDS011;45672;51.612;5.536;2023-03-01T04:29:04;10.43;;;7.28;;
59786;SDS011;45672;51.612;5.536;2023-03-01T04:31:30;9.02;;;7.32;;
59786;SDS011;45672;51.612;5.536;2023-03-01T04:33:55;9.50;;;7.47;;
59786;SDS011;45672;51.612;5.536;2023-03-01T04:36:23;9.90;;;7.72;;
59786;SDS011;45672;51.612;5.536;2023-03-01T04:38:50;11.43;;;8.02;;
59786;SDS011;45672;51.612;5.536;2023-03-01T04:41:17;9.10;;;7.13;;
59786;SDS011;45672;51.612;5.536;2023-03-01T04:43:44;9.27;;;7.30;;
59786;SDS011;45672;51.612;5.536;2023-03-01T04:46:11;10.65;;;8.00;;
59786;SDS011;45672;51.612;5.536;2023-03-01T04:48:38;12.13;;;7.80;;
59786;SDS011;45672;51.612;5.536;2023-03-01T04:51:05;8.60;;;7.25;;
59786;SDS011;45672;51.612;5.536;2023-03-01T04:53:32;9.90;;;7.70;;
59786;SDS011;45672;51.612;5.536;2023-03-01T04:55:58;9.48;;;7.25;;
59786;SDS011;45672;51.612;5.536;2023-03-01T04:58:24;18.10;;;8.07;;
59786;SDS011;45672;51.612;5.536;2023-03-01T05:00:51;10.27;;;7.97;;
59786;SDS011;45672;51.612;5.536;2023-03-01T05:03:17;11.38;;;7.75;;
59786;SDS011;45672;51.612;5.536;2023-03-01T05:05:43;7.57;;;5.90;;
59786;SDS011;45672;51.612;5.536;2023-03-01T05:08:10;11.80;;;8.25;;
59786;SDS011;45672;51.612;5.536;2023-03-01T05:10:53;9.93;;;7.55;;
59786;SDS011;45672;51.612;5.536;2023-03-01T05:13:20;10.55;;;7.22;;
59786;SDS011;45672;51.612;5.536;2023-03-01T05:15:49;9.57;;;7.60;;
59786;SDS011;45672;51.612;5.536;2023-03-01T05:18:19;11.02;;;8.07;;
59786;SDS011;45672;51.612;5.536;2023-03-01T05:20:45;10.23;;;8.13;;
59786;SDS011;45672;51.612;5.536;2023-03-01T05:23:11;11.35;;;7.85;;
59786;SDS011;45672;51.612;5.536;2023-03-01T05:25:36;11.85;;;8.30;;
59786;SDS011;45672;51.612;5.536;2023-03-01T05:28:05;10.90;;;8.65;;
59786;SDS011;45672;51.612;5.536;2023-03-01T05:30:32;10.77;;;7.88;;
59786;SDS011;45672;51.612;5.536;2023-03-01T05:32:58;11.77;;;8.52;;
59786;SDS011;45672;51.612;5.536;2023-03-01T05:35:24;10.57;;;8.15;;
59786;SDS011;45672;51.612;5.536;2023-03-01T05:37:49;11.25;;;8.02;;
59786;SDS011;45672;51.612;5.536;2023-03-01T05:40:17;11.00;;;7.72;;
59786;SDS011;45672;51.612;5.536;2023-03-01T05:42:45;12.25;;;8.27;;
59786;SDS011;45672;51.612;5.536;2023-03-01T05:45:12;12.93;;;8.32;;
59786;SDS011;45672;51.612;5.536;2023-03-01T05:47:40;13.68;;;9.05;;
59786;SDS011;45672;51.612;5.536;2023-03-01T05:50:08;12.50;;;9.13;;
59786;SDS011;45672;51.612;5.536;2023-03-01T05:52:44;13.15;;;8.32;;
59786;SDS011;45672;51.612;5.536;2023-03-01T05:55:10;11.55;;;8.32;;
59786;SDS011;45672;51.612;5.536;2023-03-01T05:57:36;13.07;;;8.60;;
59786;SDS011;45672;51.612;5.536;2023-03-01T06:00:01;11.55;;;8.00;;
59786;SDS011;45672;51.612;5.536;2023-03-01T06:02:26;10.40;;;8.57;;
59786;SDS011;45672;51.612;5.536;2023-03-01T06:04:52;10.65;;;8.52;;
59786;SDS011;45672;51.612;5.536;2023-03-01T06:07:17;11.10;;;8.65;;
59786;SDS011;45672;51.612;5.536;2023-03-01T06:09:42;12.98;;;9.05;;
59786;SDS011;45672;51.612;5.536;2023-03-01T06:12:08;11.57;;;8.70;;
59786;SDS011;45672;51.612;5.536;2023-03-01T06:14:33;8.93;;;7.18;;
59786;SDS011;45672;51.612;5.536;2023-03-01T06:16:58;12.95;;;9.38;;
59786;SDS011;45672;51.612;5.536;2023-03-01T06:19:24;15.68;;;9.20;;
59786;SDS011;45672;51.612;5.536;2023-03-01T06:21:49;14.35;;;9.43;;
59786;SDS011;45672;51.612;5.536;2023-03-01T06:24:14;10.68;;;8.02;;
59786;SDS011;45672;51.612;5.536;2023-03-01T06:26:40;16.52;;;9.07;;
59786;SDS011;45672;51.612;5.536;2023-03-01T06:29:05;14.95;;;9.95;;
59786;SDS011;45672;51.612;5.536;2023-03-01T06:31:30;13.15;;;8.82;;
59786;SDS011;45672;51.612;5.536;2023-03-01T06:33:56;13.00;;;8.68;;
59786;SDS011;45672;51.612;5.536;2023-03-01T06:36:21;17.33;;;8.65;;
59786;SDS011;45672;51.612;5.536;2023-03-01T06:38:46;12.80;;;8.77;;
59786;SDS011;45672;51.612;5.536;2023-03-01T06:41:12;13.27;;;9.32;;
59786;SDS011;45672;51.612;5.536;2023-03-01T06:43:37;11.38;;;8.32;;
59786;SDS011;45672;51.612;5.536;2023-03-01T06:46:03;13.07;;;8.95;;
59786;SDS011;45672;51.612;5.536;2023-03-01T06:48:30;17.30;;;9.90;;
59786;SDS011;45672;51.612;5.536;2023-03-01T06:50:57;12.02;;;9.50;;
59786;SDS011;45672;51.612;5.536;2023-03-01T06:53:23;20.05;;;9.20;;
59786;SDS011;45672;51.612;5.536;2023-03-01T06:55:53;13.45;;;9.43;;
59786;SDS011;45672;51.612;5.536;2023-03-01T06:58:21;13.68;;;9.05;;
59786;SDS011;45672;51.612;5.536;2023-03-01T07:00:47;15.55;;;9.68;;
59786;SDS011;45672;51.612;5.536;2023-03-01T07:03:12;12.48;;;9.23;;
59786;SDS011;45672;51.612;5.536;2023-03-01T07:05:37;14.07;;;9.93;;
59786;SDS011;45672;51.612;5.536;2023-03-01T07:08:03;13.23;;;8.68;;
59786;SDS011;45672;51.612;5.536;2023-03-01T07:10:28;13.75;;;8.30;;
59786;SDS011;45672;51.612;5.536;2023-03-01T07:12:54;13.27;;;9.15;;
59786;SDS011;45672;51.612;5.536;2023-03-01T07:15:21;13.80;;;8.88;;
59786;SDS011;45672;51.612;5.536;2023-03-01T07:17:46;12.88;;;9.27;;
59786;SDS011;45672;51.612;5.536;2023-03-01T07:20:14;14.27;;;9.48;;
59786;SDS011;45672;51.612;5.536;2023-03-01T07:22:40;14.43;;;9.93;;
59786;SDS011;45672;51.612;5.536;2023-03-01T07:25:07;13.75;;;9.43;;
59786;SDS011;45672;51.612;5.536;2023-03-01T07:27:32;12.32;;;9.55;;
59786;SDS011;45672;51.612;5.536;2023-03-01T07:29:58;13.57;;;9.18;;
59786;SDS011;45672;51.612;5.536;2023-03-01T07:32:23;13.75;;;9.60;;
59786;SDS011;45672;51.612;5.536;2023-03-01T07:34:48;16.23;;;9.27;;
59786;SDS011;45672;51.612;5.536;2023-03-01T07:37:13;14.93;;;9.23;;
59786;SDS011;45672;51.612;5.536;2023-03-01T07:39:39;16.98;;;9.65;;
59786;SDS011;45672;51.612;5.536;2023-03-01T07:42:04;19.83;;;9.45;;
59786;SDS011;45672;51.612;5.536;2023-03-01T07:44:29;19.80;;;9.38;;
59786;SDS011;45672;51.612;5.536;2023-03-01T07:46:55;24.00;;;10.40;;
59786;SDS011;45672;51.612;5.536;2023-03-01T07:49:21;17.25;;;8.80;;
59786;SDS011;45672;51.612;5.536;2023-03-01T07:51:47;31.17;;;9.93;;
59786;SDS011;45672;51.612;5.536;2023-03-01T07:54:12;20.25;;;9.68;;
59786;SDS011;45672;51.612;5.536;2023-03-01T07:56:37;14.00;;;9.23;;
59786;SDS011;45672;51.612;5.536;2023-03-01T07:59:02;12.43;;;9.10;;
59786;SDS011;45672;51.612;5.536;2023-03-01T08:01:28;13.10;;;9.23;;
59786;SDS011;45672;51.612;5.536;2023-03-01T08:03:53;13.52;;;9.68;;
59786;SDS011;45672;51.612;5.536;2023-03-01T08:06:18;12.18;;;8.98;;
59786;SDS011;45672;51.612;5.536;2023-03-01T08:08:44;15.27;;;9.40;;
59786;SDS011;45672;51.612;5.536;2023-03-01T08:11:10;13.13;;;9.23;;
59786;SDS011;45672;51.612;5.536;2023-03-01T08:13:37;11.00;;;8.40;;
59786;SDS011;45672;51.612;5.536;2023-03-01T08:16:04;12.02;;;8.82;;
59786;SDS011;45672;51.612;5.536;2023-03-01T08:18:31;13.23;;;8.30;;
59786;SDS011;45672;51.612;5.536;2023-03-01T08:21:06;13.63;;;8.77;;
59786;SDS011;45672;51.612;5.536;2023-03-01T08:23:34;13.30;;;7.95;;
59786;SDS011;45672;51.612;5.536;2023-03-01T08:26:16;12.88;;;8.15;;
59786;SDS011;45672;51.612;5.536;2023-03-01T08:28:43;14.10;;;8.07;;
59786;SDS011;45672;51.612;5.536;2023-03-01T08:31:13;9.60;;;7.75;;
59786;SDS011;45672;51.612;5.536;2023-03-01T08:33:40;10.95;;;7.93;;
59786;SDS011;45672;51.612;5.536;2023-03-01T08:36:06;11.48;;;8.60;;
59786;SDS011;45672;51.612;5.536;2023-03-01T08:38:32;9.43;;;6.93;;
59786;SDS011;45672;51.612;5.536;2023-03-01T08:41:01;8.13;;;5.85;;
59786;SDS011;45672;51.612;5.536;2023-03-01T08:43:28;12.93;;;8.30;;
59786;SDS011;45672;51.612;5.536;2023-03-01T08:45:53;8.35;;;7.30;;
59786;SDS011;45672;51.612;5.536;2023-03-01T08:48:18;11.45;;;7.95;;
59786;SDS011;45672;51.612;5.536;2023-03-01T08:50:44;7.63;;;6.80;;
59786;SDS011;45672;51.612;5.536;2023-03-01T08:53:09;10.10;;;7.88;;
59786;SDS011;45672;51.612;5.536;2023-03-01T08:55:34;11.32;;;7.93;;
59786;SDS011;45672;51.612;5.536;2023-03-01T08:58:00;15.95;;;7.70;;
59786;SDS011;45672;51.612;5.536;2023-03-01T09:00:25;8.85;;;6.90;;
59786;SDS011;45672;51.612;5.536;2023-03-01T09:02:51;7.97;;;7.18;;
59786;SDS011;45672;51.612;5.536;2023-03-01T09:05:16;8.90;;;6.80;;
59786;SDS011;45672;51.612;5.536;2023-03-01T09:07:41;7.70;;;6.88;;
59786;SDS011;45672;51.612;5.536;2023-03-01T09:10:06;10.70;;;7.40;;
59786;SDS011;45672;51.612;5.536;2023-03-01T09:12:32;8.20;;;6.70;;
59786;SDS011;45672;51.612;5.536;2023-03-01T09:14:58;8.77;;;6.88;;
59786;SDS011;45672;51.612;5.536;2023-03-01T09:17:23;8.48;;;6.47;;
59786;SDS011;45672;51.612;5.536;2023-03-01T09:19:48;9.57;;;6.68;;
59786;SDS011;45672;51.612;5.536;2023-03-01T09:22:14;9.50;;;6.45;;
59786;SDS011;45672;51.612;5.536;2023-03-01T09:24:39;7.45;;;6.63;;
59786;SDS011;45672;51.612;5.536;2023-03-01T09:27:05;10.25;;;6.68;;
59786;SDS011;45672;51.612;5.536;2023-03-01T09:29:33;16.60;;;6.95;;
59786;SDS011;45672;51.612;5.536;2023-03-01T09:32:00;11.38;;;6.47;;
59786;SDS011;45672;51.612;5.536;2023-03-01T09:34:25;6.75;;;6.03;;
59786;SDS011;45672;51.612;5.536;2023-03-01T09:36:50;6.20;;;5.32;;
59786;SDS011;45672;51.612;5.536;2023-03-01T09:39:16;6.70;;;5.93;;
59786;SDS011;45672;51.612;5.536;2023-03-01T09:41:50;7.68;;;6.07;;
59786;SDS011;45672;51.612;5.536;2023-03-01T09:47:17;9.98;;;5.20;;
59786;SDS011;45672;51.612;5.536;2023-03-01T09:49:47;8.53;;;6.73;;
59786;SDS011;45672;51.612;5.536;2023-03-01T09:55:08;8.55;;;6.18;;
59786;SDS011;45672;51.612;5.536;2023-03-01T09:57:43;6.72;;;6.05;;
59786;SDS011;45672;51.612;5.536;2023-03-01T10:00:33;6.57;;;5.78;;
59786;SDS011;45672;51.612;5.536;2023-03-01T10:03:15;6.65;;;5.95;;
59786;SDS011;45672;51.612;5.536;2023-03-01T10:08:26;7.72;;;6.65;;
59786;SDS011;45672;51.612;5.536;2023-03-01T10:10:56;8.43;;;6.78;;
59786;SDS011;45672;51.612;5.536;2023-03-01T10:16:11;7.22;;;6.50;;
59786;SDS011;45672;51.612;5.536;2023-03-01T10:18:40;7.47;;;6.68;;
59786;SDS011;45672;51.612;5.536;2023-03-01T10:21:17;7.10;;;6.40;;
59786;SDS011;45672;51.612;5.536;2023-03-01T10:23:44;8.40;;;6.60;;
59786;SDS011;45672;51.612;5.536;2023-03-01T10:34:02;10.98;;;6.75;;
59786;SDS011;45672;51.612;5.536;2023-03-01T10:36:32;6.28;;;4.78;;
59786;SDS011;45672;51.612;5.536;2023-03-01T10:38:58;8.75;;;5.93;;
59786;SDS011;45672;51.612;5.536;2023-03-01T10:41:25;8.00;;;5.97;;
59786;SDS011;45672;51.612;5.536;2023-03-01T10:51:48;10.10;;;6.82;;
59786;SDS011;45672;51.612;5.536;2023-03-01T10:56:48;12.20;;;7.53;;
59786;SDS011;45672;51.612;5.536;2023-03-01T10:59:20;12.05;;;6.82;;
59786;SDS011;45672;51.612;5.536;2023-03-01T11:02:01;9.00;;;7.53;;
59786;SDS011;45672;51.612;5.536;2023-03-01T11:04:55;7.13;;;5.63;;
59786;SDS011;45672;51.612;5.536;2023-03-01T11:07:25;5.97;;;5.28;;
59786;SDS011;45672;51.612;5.536;2023-03-01T11:09:50;9.98;;;6.82;;
59786;SDS011;45672;51.612;5.536;2023-03-01T11:12:16;9.45;;;7.22;;
59786;SDS011;45672;51.612;5.536;2023-03-01T11:14:49;7.05;;;6.00;;
59786;SDS011;45672;51.612;5.536;2023-03-01T11:17:21;7.70;;;5.53;;
59786;SDS011;45672;51.612;5.536;2023-03-01T11:22:55;6.80;;;5.65;;
59786;SDS011;45672;51.612;5.536;2023-03-01T11:25:35;8.90;;;6.05;;
59786;SDS011;45672;51.612;5.536;2023-03-01T11:28:03;5.47;;;4.55;;
59786;SDS011;45672;51.612;5.536;2023-03-01T11:30:32;8.52;;;6.47;;
59786;SDS011;45672;51.612;5.536;2023-03-01T11:33:16;10.43;;;7.03;;
59786;SDS011;45672;51.612;5.536;2023-03-01T11:36:00;9.23;;;6.80;;
59786;SDS011;45672;51.612;5.536;2023-03-01T11:40:59;10.50;;;7.55;;
59786;SDS011;45672;51.612;5.536;2023-03-01T11:56:43;9.88;;;7.47;;
59786;SDS011;45672;51.612;5.536;2023-03-01T11:59:38;10.65;;;7.53;;
59786;SDS011;45672;51.612;5.536;2023-03-01T12:02:25;8.40;;;6.45;;
59786;SDS011;45672;51.612;5.536;2023-03-01T12:15:46;10.52;;;7.72;;
59786;SDS011;45672;51.612;5.536;2023-03-01T12:21:15;9.02;;;6.88;;
59786;SDS011;45672;51.612;5.536;2023-03-01T12:32:47;15.15;;;7.95;;
59786;SDS011;45672;51.612;5.536;2023-03-01T12:35:28;10.38;;;6.78;;
59786;SDS011;45672;51.612;5.536;2023-03-01T12:38:06;8.50;;;6.50;;
59786;SDS011;45672;51.612;5.536;2023-03-01T12:43:36;8.93;;;7.05;;
59786;SDS011;45672;51.612;5.536;2023-03-01T12:49:05;10.05;;;7.55;;
59786;SDS011;45672;51.612;5.536;2023-03-01T12:51:36;9.48;;;7.03;;
59786;SDS011;45672;51.612;5.536;2023-03-01T12:54:06;9.85;;;7.00;;
59786;SDS011;45672;51.612;5.536;2023-03-01T12:57:01;9.80;;;7.72;;
59786;SDS011;45672;51.612;5.536;2023-03-01T12:59:36;7.10;;;6.35;;
59786;SDS011;45672;51.612;5.536;2023-03-01T13:04:54;9.02;;;6.90;;
59786;SDS011;45672;51.612;5.536;2023-03-01T13:10:48;9.32;;;6.65;;
59786;SDS011;45672;51.612;5.536;2023-03-01T13:13:24;8.40;;;5.88;;
59786;SDS011;45672;51.612;5.536;2023-03-01T13:15:51;10.43;;;7.32;;
59786;SDS011;45672;51.612;5.536;2023-03-01T13:20:47;9.73;;;6.93;;
59786;SDS011;45672;51.612;5.536;2023-03-01T13:33:48;9.30;;;6.65;;
59786;SDS011;45672;51.612;5.536;2023-03-01T13:46:48;6.05;;;5.45;;
59786;SDS011;45672;51.612;5.536;2023-03-01T13:49:19;11.45;;;7.38;;
59786;SDS011;45672;51.612;5.536;2023-03-01T13:51:47;9.25;;;7.30;;
59786;SDS011;45672;51.612;5.536;2023-03-01T13:54:14;9.38;;;6.65;;
59786;SDS011;45672;51.612;5.536;2023-03-01T13:56:51;11.13;;;6.80;;
59786;SDS011;45672;51.612;5.536;2023-03-01T13:59:19;9.02;;;6.50;;
59786;SDS011;45672;51.612;5.536;2023-03-01T14:01:56;9.13;;;7.80;;
59786;SDS011;45672;51.612;5.536;2023-03-01T14:04:30;7.28;;;6.45;;
59786;SDS011;45672;51.612;5.536;2023-03-01T14:07:16;7.65;;;6.18;;
59786;SDS011;45672;51.612;5.536;2023-03-01T14:09:44;7.70;;;6.57;;
59786;SDS011;45672;51.612;5.536;2023-03-01T14:15:13;13.18;;;7.65;;
59786;SDS011;45672;51.612;5.536;2023-03-01T14:20:39;8.52;;;7.43;;
59786;SDS011;45672;51.612;5.536;2023-03-01T14:23:10;11.65;;;8.20;;
59786;SDS011;45672;51.612;5.536;2023-03-01T14:25:46;10.80;;;7.63;;
59786;SDS011;45672;51.612;5.536;2023-03-01T14:28:26;9.13;;;7.18;;
59786;SDS011;45672;51.612;5.536;2023-03-01T14:30:54;11.80;;;6.30;;
59786;SDS011;45672;51.612;5.536;2023-03-01T14:33:30;10.65;;;7.18;;
59786;SDS011;45672;51.612;5.536;2023-03-01T14:36:08;9.15;;;7.35;;
59786;SDS011;45672;51.612;5.536;2023-03-01T14:38:39;6.85;;;5.80;;
59786;SDS011;45672;51.612;5.536;2023-03-01T14:43:43;8.75;;;7.00;;
59786;SDS011;45672;51.612;5.536;2023-03-01T14:46:25;12.50;;;8.32;;
59786;SDS011;45672;51.612;5.536;2023-03-01T14:48:55;14.05;;;7.32;;
59786;SDS011;45672;51.612;5.536;2023-03-01T14:51:23;10.68;;;8.18;;
59786;SDS011;45672;51.612;5.536;2023-03-01T14:53:49;12.52;;;8.45;;
59786;SDS011;45672;51.612;5.536;2023-03-01T14:56:15;12.18;;;8.32;;
59786;SDS011;45672;51.612;5.536;2023-03-01T14:58:44;10.45;;;7.95;;
59786;SDS011;45672;51.612;5.536;2023-03-01T15:01:13;10.60;;;8.73;;
59786;SDS011;45672;51.612;5.536;2023-03-01T15:03:44;12.40;;;8.43;;
59786;SDS011;45672;51.612;5.536;2023-03-01T15:06:14;11.85;;;8.38;;
59786;SDS011;45672;51.612;5.536;2023-03-01T15:08:42;10.98;;;7.95;;
59786;SDS011;45672;51.612;5.536;2023-03-01T15:11:22;9.18;;;7.68;;
59786;SDS011;45672;51.612;5.536;2023-03-01T15:13:51;11.13;;;7.75;;
59786;SDS011;45672;51.612;5.536;2023-03-01T15:16:30;12.05;;;7.88;;
59786;SDS011;45672;51.612;5.536;2023-03-01T15:18:59;10.90;;;7.10;;
59786;SDS011;45672;51.612;5.536;2023-03-01T15:21:27;10.90;;;7.60;;
59786;SDS011;45672;51.612;5.536;2023-03-01T15:24:00;10.30;;;8.32;;
59786;SDS011;45672;51.612;5.536;2023-03-01T15:26:40;12.57;;;9.18;;
59786;SDS011;45672;51.612;5.536;2023-03-01T15:29:14;10.77;;;7.10;;
59786;SDS011;45672;51.612;5.536;2023-03-01T15:31:50;9.77;;;8.05;;
59786;SDS011;45672;51.612;5.536;2023-03-01T15:34:21;12.65;;;8.63;;
59786;SDS011;45672;51.612;5.536;2023-03-01T15:36:50;12.90;;;8.43;;
59786;SDS011;45672;51.612;5.536;2023-03-01T15:39:36;14.23;;;8.88;;
59786;SDS011;45672;51.612;5.536;2023-03-01T15:45:06;12.85;;;8.73;;
59786;SDS011;45672;51.612;5.536;2023-03-01T15:47:35;10.15;;;8.43;;
59786;SDS011;45672;51.612;5.536;2023-03-01T15:50:05;9.88;;;7.63;;
59786;SDS011;45672;51.612;5.536;2023-03-01T15:52:42;10.60;;;7.40;;
59786;SDS011;45672;51.612;5.536;2023-03-01T15:55:15;10.00;;;6.95;;
59786;SDS011;45672;51.612;5.536;2023-03-01T15:57:43;14.70;;;8.02;;
59786;SDS011;45672;51.612;5.536;2023-03-01T16:00:09;11.95;;;7.68;;
59786;SDS011;45672;51.612;5.536;2023-03-01T16:02:39;14.68;;;8.43;;
59786;SDS011;45672;51.612;5.536;2023-03-01T16:05:06;13.43;;;7.95;;
59786;SDS011;45672;51.612;5.536;2023-03-01T16:07:41;11.52;;;7.95;;
59786;SDS011;45672;51.612;5.536;2023-03-01T16:10:06;13.45;;;7.50;;
59786;SDS011;45672;51.612;5.536;2023-03-01T16:12:33;9.23;;;7.95;;
59786;SDS011;45672;51.612;5.536;2023-03-01T16:14:58;11.57;;;7.53;;
59786;SDS011;45672;51.612;5.536;2023-03-01T16:17:23;9.45;;;7.95;;
59786;SDS011;45672;51.612;5.536;2023-03-01T16:19:49;10.27;;;7.40;;
59786;SDS011;45672;51.612;5.536;2023-03-01T16:22:14;10.70;;;5.22;;
59786;SDS011;45672;51.612;5.536;2023-03-01T16:24:40;12.32;;;6.55;;
59786;SDS011;45672;51.612;5.536;2023-03-01T16:27:06;8.68;;;7.60;;
59786;SDS011;45672;51.612;5.536;2023-03-01T16:29:31;8.02;;;6.75;;
59786;SDS011;45672;51.612;5.536;2023-03-01T16:31:59;12.25;;;7.10;;
59786;SDS011;45672;51.612;5.536;2023-03-01T16:34:25;11.07;;;8.23;;
59786;SDS011;45672;51.612;5.536;2023-03-01T16:36:51;12.13;;;7.55;;
59786;SDS011;45672;51.612;5.536;2023-03-01T16:39:16;10.57;;;8.13;;
59786;SDS011;45672;51.612;5.536;2023-03-01T16:41:42;13.43;;;7.57;;
59786;SDS011;45672;51.612;5.536;2023-03-01T16:44:07;11.90;;;7.28;;
59786;SDS011;45672;51.612;5.536;2023-03-01T16:46:32;12.60;;;6.57;;
59786;SDS011;45672;51.612;5.536;2023-03-01T16:48:58;10.90;;;7.70;;
59786;SDS011;45672;51.612;5.536;2023-03-01T16:51:23;12.85;;;8.40;;
59786;SDS011;45672;51.612;5.536;2023-03-01T16:53:49;9.27;;;7.45;;
59786;SDS011;45672;51.612;5.536;2023-03-01T16:56:15;11.02;;;7.65;;
59786;SDS011;45672;51.612;5.536;2023-03-01T16:58:43;9.93;;;6.85;;
59786;SDS011;45672;51.612;5.536;2023-03-01T17:01:10;8.80;;;7.07;;